sensor_id;sensor_type;location;lat;lon;timestamp;P1;durP1;ratioP1;P2;durP2;ratioP2
54823;SDS011;40724;53.196;5.980;2023-05-10T00:00:40;5.43;;;4.70;;
54823;SDS011;40724;53.196;5.980;2023-05-10T00:03:06;5.88;;;5.13;;
54823;SDS011;40724;53.196;5.980;2023-05-10T00:05:32;6.85;;;5.15;;
54823;SDS011;40724;53.196;5.980;2023-05-10T00:07:58;6.32;;;5.20;;
54823;SDS011;40724;53.196;5.980;2023-05-10T00:10:24;6.38;;;5.28;;
54823;SDS011;40724;53.196;5.980;2023-05-10T00:12:50;7.05;;;5.93;;
54823;SDS011;40724;53.196;5.980;2023-05-10T00:15:16;9.57;;;6.50;;
54823;SDS011;40724;53.196;5.980;2023-05-10T00:17:41;8.82;;;6.05;;
54823;SDS011;40724;53.196;5.980;2023-05-10T00:20:07;7.97;;;6.50;;
54823;SDS011;40724;53.196;5.980;2023-05-10T00:22:33;9.43;;;7.13;;
54823;SDS011;40724;53.196;5.980;2023-05-10T00:24:59;9.40;;;7.28;;
54823;SDS011;40724;53.196;5.980;2023-05-10T00:27:25;9.68;;;7.72;;
54823;SDS011;40724;53.196;5.980;2023-05-10T00:29:51;8.05;;;7.25;;
54823;SDS011;40724;53.196;5.980;2023-05-10T00:32:18;8.25;;;7.05;;
54823;SDS011;40724;53.196;5.980;2023-05-10T00:34:44;8.43;;;6.93;;
54823;SDS011;40724;53.196;5.980;2023-05-10T00:37:10;6.63;;;5.82;;
54823;SDS011;40724;53.196;5.980;2023-05-10T00:39:36;6.97;;;6.07;;
54823;SDS011;40724;53.196;5.980;2023-05-10T00:42:02;6.55;;;4.82;;
54823;SDS011;40724;53.196;5.980;2023-05-10T00:44:29;4.53;;;3.78;;
54823;SDS011;40724;53.196;5.980;2023-05-10T00:46:56;3.90;;;3.47;;
54823;SDS011;40724;53.196;5.980;2023-05-10T00:49:22;4.05;;;3.65;;
54823;SDS011;40724;53.196;5.980;2023-05-10T00:51:48;3.88;;;3.47;;
54823;SDS011;40724;53.196;5.980;2023-05-10T00:54:15;4.43;;;3.92;;
54823;SDS011;40724;53.196;5.980;2023-05-10T00:56:41;4.40;;;3.45;;
54823;SDS011;40724;53.196;5.980;2023-05-10T00:59:13;4.23;;;3.23;;
54823;SDS011;40724;53.196;5.980;2023-05-10T01:01:40;4.43;;;3.72;;
54823;SDS011;40724;53.196;5.980;2023-05-10T01:04:06;4.32;;;3.35;;
54823;SDS011;40724;53.196;5.980;2023-05-10T01:06:32;4.28;;;3.65;;
54823;SDS011;40724;53.196;5.980;2023-05-10T01:08:59;5.15;;;4.13;;
54823;SDS011;40724;53.196;5.980;2023-05-10T01:11:25;6.28;;;4.60;;
54823;SDS011;40724;53.196;5.980;2023-05-10T01:13:54;6.18;;;5.40;;
54823;SDS011;40724;53.196;5.980;2023-05-10T01:16:21;6.85;;;5.95;;
54823;SDS011;40724;53.196;5.980;2023-05-10T01:18:48;10.85;;;8.70;;
54823;SDS011;40724;53.196;5.980;2023-05-10T01:27:02;18.00;;;13.80;;
54823;SDS011;40724;53.196;5.980;2023-05-10T01:34:34;21.73;;;14.05;;
54823;SDS011;40724;53.196;5.980;2023-05-10T01:37:11;24.13;;;15.57;;
54823;SDS011;40724;53.196;5.980;2023-05-10T01:42:14;24.25;;;15.32;;
54823;SDS011;40724;53.196;5.980;2023-05-10T01:44:49;20.80;;;14.40;;
54823;SDS011;40724;53.196;5.980;2023-05-10T01:47:25;16.75;;;13.27;;
54823;SDS011;40724;53.196;5.980;2023-05-10T01:49:54;21.60;;;14.63;;
54823;SDS011;40724;53.196;5.980;2023-05-10T01:52:32;20.38;;;15.30;;
54823;SDS011;40724;53.196;5.980;2023-05-10T01:55:00;18.48;;;13.10;;
54823;SDS011;40724;53.196;5.980;2023-05-10T01:57:29;19.35;;;14.98;;
54823;SDS011;40724;53.196;5.980;2023-05-10T01:59:57;26.48;;;15.88;;
54823;SDS011;40724;53.196;5.980;2023-05-10T02:02:24;23.77;;;14.40;;
54823;SDS011;40724;53.196;5.980;2023-05-10T02:04:51;24.02;;;15.60;;
54823;SDS011;40724;53.196;5.980;2023-05-10T02:07:19;22.05;;;15.75;;
54823;SDS011;40724;53.196;5.980;2023-05-10T02:09:46;23.63;;;16.23;;
54823;SDS011;40724;53.196;5.980;2023-05-10T02:12:13;25.33;;;15.40;;
54823;SDS011;40724;53.196;5.980;2023-05-10T02:14:40;24.42;;;14.63;;
54823;SDS011;40724;53.196;5.980;2023-05-10T02:17:07;26.10;;;15.90;;
54823;SDS011;40724;53.196;5.980;2023-05-10T02:19:34;21.27;;;16.00;;
54823;SDS011;40724;53.196;5.980;2023-05-10T02:22:02;21.92;;;14.23;;
54823;SDS011;40724;53.196;5.980;2023-05-10T02:24:29;25.17;;;16.50;;
54823;SDS011;40724;53.196;5.980;2023-05-10T02:26:55;20.30;;;14.20;;
54823;SDS011;40724;53.196;5.980;2023-05-10T02:29:23;18.00;;;13.20;;
54823;SDS011;40724;53.196;5.980;2023-05-10T02:31:49;16.35;;;13.05;;
54823;SDS011;40724;53.196;5.980;2023-05-10T02:34:17;13.93;;;11.23;;
54823;SDS011;40724;53.196;5.980;2023-05-10T02:36:44;16.02;;;12.07;;
54823;SDS011;40724;53.196;5.980;2023-05-10T02:39:11;12.20;;;9.88;;
54823;SDS011;40724;53.196;5.980;2023-05-10T02:41:39;11.75;;;9.32;;
54823;SDS011;40724;53.196;5.980;2023-05-10T02:44:06;11.88;;;10.05;;
54823;SDS011;40724;53.196;5.980;2023-05-10T02:46:33;10.45;;;8.65;;
54823;SDS011;40724;53.196;5.980;2023-05-10T02:49:00;7.90;;;6.38;;
54823;SDS011;40724;53.196;5.980;2023-05-10T02:51:28;6.80;;;5.43;;
54823;SDS011;40724;53.196;5.980;2023-05-10T02:53:56;6.80;;;5.60;;
54823;SDS011;40724;53.196;5.980;2023-05-10T02:56:24;4.95;;;4.45;;
54823;SDS011;40724;53.196;5.980;2023-05-10T02:58:51;4.53;;;3.72;;
54823;SDS011;40724;53.196;5.980;2023-05-10T03:01:17;5.10;;;3.78;;
54823;SDS011;40724;53.196;5.980;2023-05-10T03:03:43;4.28;;;3.42;;
54823;SDS011;40724;53.196;5.980;2023-05-10T03:06:09;3.47;;;3.03;;
54823;SDS011;40724;53.196;5.980;2023-05-10T03:08:35;3.47;;;2.47;;
54823;SDS011;40724;53.196;5.980;2023-05-10T03:11:09;3.53;;;2.35;;
54823;SDS011;40724;53.196;5.980;2023-05-10T03:13:43;3.28;;;2.05;;
54823;SDS011;40724;53.196;5.980;2023-05-10T03:16:12;2.60;;;1.83;;
54823;SDS011;40724;53.196;5.980;2023-05-10T03:21:41;3.10;;;1.80;;
54823;SDS011;40724;53.196;5.980;2023-05-10T03:24:09;1.98;;;1.77;;
54823;SDS011;40724;53.196;5.980;2023-05-10T03:26:38;2.00;;;1.70;;
54823;SDS011;40724;53.196;5.980;2023-05-10T03:29:04;2.15;;;1.70;;
54823;SDS011;40724;53.196;5.980;2023-05-10T03:31:32;3.13;;;1.80;;
54823;SDS011;40724;53.196;5.980;2023-05-10T03:33:58;3.10;;;1.70;;
54823;SDS011;40724;53.196;5.980;2023-05-10T03:36:25;1.73;;;1.48;;
54823;SDS011;40724;53.196;5.980;2023-05-10T03:38:51;1.88;;;1.48;;
54823;SDS011;40724;53.196;5.980;2023-05-10T03:41:17;2.63;;;1.80;;
54823;SDS011;40724;53.196;5.980;2023-05-10T03:43:43;3.47;;;1.73;;
54823;SDS011;40724;53.196;5.980;2023-05-10T03:46:09;2.88;;;2.45;;
54823;SDS011;40724;53.196;5.980;2023-05-10T03:48:35;4.45;;;3.17;;
54823;SDS011;40724;53.196;5.980;2023-05-10T03:51:01;5.28;;;3.45;;
54823;SDS011;40724;53.196;5.980;2023-05-10T03:53:28;4.72;;;3.55;;
54823;SDS011;40724;53.196;5.980;2023-05-10T03:55:54;4.55;;;3.30;;
54823;SDS011;40724;53.196;5.980;2023-05-10T03:58:20;7.22;;;4.80;;
54823;SDS011;40724;53.196;5.980;2023-05-10T04:00:47;5.95;;;4.55;;
54823;SDS011;40724;53.196;5.980;2023-05-10T04:03:13;5.40;;;4.63;;
54823;SDS011;40724;53.196;5.980;2023-05-10T04:05:39;9.30;;;6.43;;
54823;SDS011;40724;53.196;5.980;2023-05-10T04:08:05;9.35;;;6.65;;
54823;SDS011;40724;53.196;5.980;2023-05-10T04:10:32;8.43;;;6.45;;
54823;SDS011;40724;53.196;5.980;2023-05-10T04:12:58;7.55;;;6.35;;
54823;SDS011;40724;53.196;5.980;2023-05-10T04:15:24;8.73;;;6.93;;
54823;SDS011;40724;53.196;5.980;2023-05-10T04:17:50;8.05;;;5.90;;
54823;SDS011;40724;53.196;5.980;2023-05-10T04:20:16;8.32;;;6.22;;
54823;SDS011;40724;53.196;5.980;2023-05-10T04:22:43;7.90;;;6.70;;
54823;SDS011;40724;53.196;5.980;2023-05-10T04:25:09;8.88;;;6.93;;
54823;SDS011;40724;53.196;5.980;2023-05-10T04:27:35;10.00;;;6.90;;
54823;SDS011;40724;53.196;5.980;2023-05-10T04:30:02;8.88;;;7.65;;
54823;SDS011;40724;53.196;5.980;2023-05-10T04:32:28;13.00;;;8.85;;
54823;SDS011;40724;53.196;5.980;2023-05-10T04:34:54;11.45;;;8.70;;
54823;SDS011;40724;53.196;5.980;2023-05-10T04:37:20;11.75;;;8.68;;
54823;SDS011;40724;53.196;5.980;2023-05-10T04:39:48;9.32;;;7.93;;
54823;SDS011;40724;53.196;5.980;2023-05-10T04:42:14;9.02;;;6.82;;
54823;SDS011;40724;53.196;5.980;2023-05-10T04:44:40;7.13;;;6.38;;
54823;SDS011;40724;53.196;5.980;2023-05-10T04:47:06;8.00;;;6.05;;
54823;SDS011;40724;53.196;5.980;2023-05-10T04:49:32;5.88;;;4.40;;
54823;SDS011;40724;53.196;5.980;2023-05-10T04:51:59;3.88;;;3.22;;
54823;SDS011;40724;53.196;5.980;2023-05-10T04:54:25;6.38;;;1.98;;
54823;SDS011;40724;53.196;5.980;2023-05-10T04:56:51;1.83;;;1.33;;
54823;SDS011;40724;53.196;5.980;2023-05-10T04:59:17;1.63;;;1.33;;
54823;SDS011;40724;53.196;5.980;2023-05-10T05:01:43;1.25;;;0.88;;
54823;SDS011;40724;53.196;5.980;2023-05-10T05:04:09;1.20;;;0.90;;
54823;SDS011;40724;53.196;5.980;2023-05-10T05:06:35;1.63;;;1.45;;
54823;SDS011;40724;53.196;5.980;2023-05-10T05:09:02;2.25;;;1.40;;
54823;SDS011;40724;53.196;5.980;2023-05-10T05:11:28;2.38;;;1.77;;
54823;SDS011;40724;53.196;5.980;2023-05-10T05:13:54;1.80;;;1.30;;
54823;SDS011;40724;53.196;5.980;2023-05-10T05:16:20;3.92;;;1.77;;
54823;SDS011;40724;53.196;5.980;2023-05-10T05:18:46;2.78;;;2.03;;
54823;SDS011;40724;53.196;5.980;2023-05-10T05:21:13;4.05;;;2.13;;
54823;SDS011;40724;53.196;5.980;2023-05-10T05:23:40;4.13;;;3.05;;
54823;SDS011;40724;53.196;5.980;2023-05-10T05:26:06;4.30;;;3.28;;
54823;SDS011;40724;53.196;5.980;2023-05-10T05:28:32;4.80;;;4.13;;
54823;SDS011;40724;53.196;5.980;2023-05-10T05:31:02;5.25;;;4.20;;
54823;SDS011;40724;53.196;5.980;2023-05-10T05:33:28;4.55;;;3.72;;
54823;SDS011;40724;53.196;5.980;2023-05-10T05:35:54;6.82;;;5.15;;
54823;SDS011;40724;53.196;5.980;2023-05-10T05:38:20;6.20;;;5.00;;
54823;SDS011;40724;53.196;5.980;2023-05-10T05:40:46;5.70;;;4.93;;
54823;SDS011;40724;53.196;5.980;2023-05-10T05:43:13;8.55;;;5.78;;
54823;SDS011;40724;53.196;5.980;2023-05-10T05:45:39;7.25;;;5.72;;
54823;SDS011;40724;53.196;5.980;2023-05-10T05:48:05;7.70;;;5.50;;
54823;SDS011;40724;53.196;5.980;2023-05-10T05:50:31;7.45;;;5.80;;
54823;SDS011;40724;53.196;5.980;2023-05-10T05:52:57;6.70;;;5.65;;
54823;SDS011;40724;53.196;5.980;2023-05-10T05:55:23;7.30;;;6.50;;
54823;SDS011;40724;53.196;5.980;2023-05-10T05:57:51;9.10;;;7.20;;
54823;SDS011;40724;53.196;5.980;2023-05-10T06:00:17;9.10;;;7.03;;
54823;SDS011;40724;53.196;5.980;2023-05-10T06:02:43;8.20;;;5.85;;
54823;SDS011;40724;53.196;5.980;2023-05-10T06:05:10;6.97;;;5.75;;
54823;SDS011;40724;53.196;5.980;2023-05-10T06:07:36;6.70;;;5.45;;
54823;SDS011;40724;53.196;5.980;2023-05-10T06:10:02;5.78;;;4.68;;
54823;SDS011;40724;53.196;5.980;2023-05-10T06:12:28;5.57;;;4.55;;
54823;SDS011;40724;53.196;5.980;2023-05-10T06:14:54;6.05;;;4.22;;
54823;SDS011;40724;53.196;5.980;2023-05-10T06:17:21;4.13;;;3.15;;
54823;SDS011;40724;53.196;5.980;2023-05-10T06:19:47;6.13;;;4.03;;
54823;SDS011;40724;53.196;5.980;2023-05-10T06:22:13;5.28;;;3.38;;
54823;SDS011;40724;53.196;5.980;2023-05-10T06:24:39;5.80;;;3.75;;
54823;SDS011;40724;53.196;5.980;2023-05-10T06:27:06;6.40;;;3.78;;
54823;SDS011;40724;53.196;5.980;2023-05-10T06:29:32;5.07;;;3.50;;
54823;SDS011;40724;53.196;5.980;2023-05-10T06:31:58;4.18;;;3.05;;
54823;SDS011;40724;53.196;5.980;2023-05-10T06:34:24;3.60;;;2.92;;
54823;SDS011;40724;53.196;5.980;2023-05-10T06:36:51;4.13;;;2.92;;
54823;SDS011;40724;53.196;5.980;2023-05-10T06:39:17;3.20;;;2.33;;
54823;SDS011;40724;53.196;5.980;2023-05-10T06:41:43;5.25;;;2.53;;
54823;SDS011;40724;53.196;5.980;2023-05-10T06:44:09;3.95;;;2.60;;
54823;SDS011;40724;53.196;5.980;2023-05-10T06:46:35;3.13;;;2.25;;
54823;SDS011;40724;53.196;5.980;2023-05-10T06:49:02;4.00;;;2.42;;
54823;SDS011;40724;53.196;5.980;2023-05-10T06:51:28;3.08;;;2.00;;
54823;SDS011;40724;53.196;5.980;2023-05-10T06:53:54;3.53;;;1.80;;
54823;SDS011;40724;53.196;5.980;2023-05-10T06:56:20;2.33;;;1.60;;
54823;SDS011;40724;53.196;5.980;2023-05-10T06:58:49;2.33;;;1.63;;
54823;SDS011;40724;53.196;5.980;2023-05-10T07:01:15;3.70;;;2.10;;
54823;SDS011;40724;53.196;5.980;2023-05-10T07:03:41;3.15;;;2.08;;
54823;SDS011;40724;53.196;5.980;2023-05-10T07:06:08;3.35;;;2.28;;
54823;SDS011;40724;53.196;5.980;2023-05-10T07:08:34;3.92;;;2.15;;
54823;SDS011;40724;53.196;5.980;2023-05-10T07:11:01;4.25;;;2.47;;
54823;SDS011;40724;53.196;5.980;2023-05-10T07:13:28;4.30;;;2.50;;
54823;SDS011;40724;53.196;5.980;2023-05-10T07:15:55;4.40;;;3.17;;
54823;SDS011;40724;53.196;5.980;2023-05-10T07:18:21;3.70;;;2.58;;
54823;SDS011;40724;53.196;5.980;2023-05-10T07:20:47;4.20;;;3.10;;
54823;SDS011;40724;53.196;5.980;2023-05-10T07:23:13;4.07;;;2.83;;
54823;SDS011;40724;53.196;5.980;2023-05-10T07:25:40;4.30;;;2.72;;
54823;SDS011;40724;53.196;5.980;2023-05-10T07:28:06;4.97;;;2.88;;
54823;SDS011;40724;53.196;5.980;2023-05-10T07:30:32;3.58;;;2.85;;
54823;SDS011;40724;53.196;5.980;2023-05-10T07:32:58;3.83;;;2.75;;
54823;SDS011;40724;53.196;5.980;2023-05-10T07:35:25;5.43;;;2.90;;
54823;SDS011;40724;53.196;5.980;2023-05-10T07:37:51;4.60;;;2.80;;
54823;SDS011;40724;53.196;5.980;2023-05-10T07:40:17;3.78;;;2.75;;
54823;SDS011;40724;53.196;5.980;2023-05-10T07:42:43;4.32;;;2.10;;
54823;SDS011;40724;53.196;5.980;2023-05-10T07:45:09;4.43;;;2.22;;
54823;SDS011;40724;53.196;5.980;2023-05-10T07:47:36;4.15;;;2.53;;
54823;SDS011;40724;53.196;5.980;2023-05-10T07:50:02;6.70;;;3.38;;
54823;SDS011;40724;53.196;5.980;2023-05-10T07:52:28;3.70;;;2.88;;
54823;SDS011;40724;53.196;5.980;2023-05-10T07:54:54;3.90;;;2.45;;
54823;SDS011;40724;53.196;5.980;2023-05-10T07:57:22;4.00;;;2.53;;
54823;SDS011;40724;53.196;5.980;2023-05-10T07:59:48;4.50;;;2.80;;
54823;SDS011;40724;53.196;5.980;2023-05-10T08:02:14;4.18;;;2.30;;
54823;SDS011;40724;53.196;5.980;2023-05-10T08:04:40;4.65;;;2.53;;
54823;SDS011;40724;53.196;5.980;2023-05-10T08:07:06;9.90;;;3.88;;
54823;SDS011;40724;53.196;5.980;2023-05-10T08:09:33;4.03;;;3.05;;
54823;SDS011;40724;53.196;5.980;2023-05-10T08:11:59;4.35;;;2.90;;
54823;SDS011;40724;53.196;5.980;2023-05-10T08:14:25;3.88;;;2.75;;
54823;SDS011;40724;53.196;5.980;2023-05-10T08:16:51;6.70;;;3.78;;
54823;SDS011;40724;53.196;5.980;2023-05-10T08:19:17;7.25;;;3.97;;
54823;SDS011;40724;53.196;5.980;2023-05-10T08:21:46;9.27;;;4.80;;
54823;SDS011;40724;53.196;5.980;2023-05-10T08:24:12;5.05;;;3.45;;
54823;SDS011;40724;53.196;5.980;2023-05-10T08:26:38;4.78;;;3.45;;
54823;SDS011;40724;53.196;5.980;2023-05-10T08:29:04;5.95;;;3.58;;
54823;SDS011;40724;53.196;5.980;2023-05-10T08:31:31;5.85;;;4.20;;
54823;SDS011;40724;53.196;5.980;2023-05-10T08:33:57;6.13;;;4.53;;
54823;SDS011;40724;53.196;5.980;2023-05-10T08:36:23;9.98;;;4.68;;
54823;SDS011;40724;53.196;5.980;2023-05-10T08:38:50;6.07;;;4.40;;
54823;SDS011;40724;53.196;5.980;2023-05-10T08:41:18;6.47;;;4.60;;
54823;SDS011;40724;53.196;5.980;2023-05-10T08:43:46;10.68;;;5.13;;
54823;SDS011;40724;53.196;5.980;2023-05-10T08:46:14;7.45;;;4.38;;
54823;SDS011;40724;53.196;5.980;2023-05-10T08:48:43;7.60;;;5.30;;
54823;SDS011;40724;53.196;5.980;2023-05-10T08:51:09;6.00;;;4.30;;
54823;SDS011;40724;53.196;5.980;2023-05-10T08:53:35;6.10;;;3.90;;
54823;SDS011;40724;53.196;5.980;2023-05-10T08:56:02;5.30;;;3.20;;
54823;SDS011;40724;53.196;5.980;2023-05-10T08:58:29;5.75;;;3.88;;
54823;SDS011;40724;53.196;5.980;2023-05-10T09:00:55;9.05;;;4.47;;
54823;SDS011;40724;53.196;5.980;2023-05-10T09:03:22;5.70;;;4.00;;
54823;SDS011;40724;53.196;5.980;2023-05-10T09:05:49;9.02;;;4.03;;
54823;SDS011;40724;53.196;5.980;2023-05-10T09:08:15;7.20;;;5.30;;
54823;SDS011;40724;53.196;5.980;2023-05-10T09:10:42;5.38;;;3.75;;
54823;SDS011;40724;53.196;5.980;2023-05-10T09:13:10;5.93;;;3.88;;
54823;SDS011;40724;53.196;5.980;2023-05-10T09:15:37;5.50;;;3.80;;
54823;SDS011;40724;53.196;5.980;2023-05-10T09:18:03;6.18;;;3.85;;
54823;SDS011;40724;53.196;5.980;2023-05-10T09:20:29;6.95;;;4.13;;
54823;SDS011;40724;53.196;5.980;2023-05-10T09:22:56;5.80;;;3.95;;
54823;SDS011;40724;53.196;5.980;2023-05-10T09:25:22;7.10;;;4.15;;
54823;SDS011;40724;53.196;5.980;2023-05-10T09:27:48;9.00;;;4.95;;
54823;SDS011;40724;53.196;5.980;2023-05-10T09:30:23;9.60;;;5.43;;
54823;SDS011;40724;53.196;5.980;2023-05-10T09:32:50;11.45;;;6.18;;
54823;SDS011;40724;53.196;5.980;2023-05-10T09:35:17;8.95;;;5.22;;
54823;SDS011;40724;53.196;5.980;2023-05-10T09:37:44;7.22;;;5.30;;
54823;SDS011;40724;53.196;5.980;2023-05-10T09:40:32;9.75;;;6.65;;
54823;SDS011;40724;53.196;5.980;2023-05-10T09:45:25;9.95;;;6.70;;
54823;SDS011;40724;53.196;5.980;2023-05-10T09:47:51;10.57;;;7.65;;
54823;SDS011;40724;53.196;5.980;2023-05-10T09:50:18;8.80;;;6.72;;
54823;SDS011;40724;53.196;5.980;2023-05-10T09:55:13;9.82;;;6.82;;
54823;SDS011;40724;53.196;5.980;2023-05-10T09:57:40;9.32;;;7.38;;
54823;SDS011;40724;53.196;5.980;2023-05-10T10:00:06;10.85;;;6.13;;
54823;SDS011;40724;53.196;5.980;2023-05-10T10:02:32;9.00;;;6.72;;
54823;SDS011;40724;53.196;5.980;2023-05-10T10:05:02;9.60;;;6.07;;
54823;SDS011;40724;53.196;5.980;2023-05-10T10:07:28;9.75;;;6.00;;
54823;SDS011;40724;53.196;5.980;2023-05-10T10:09:55;10.45;;;7.00;;
54823;SDS011;40724;53.196;5.980;2023-05-10T10:12:21;10.77;;;6.15;;
54823;SDS011;40724;53.196;5.980;2023-05-10T10:14:47;10.77;;;6.70;;
54823;SDS011;40724;53.196;5.980;2023-05-10T10:17:15;10.70;;;5.45;;
54823;SDS011;40724;53.196;5.980;2023-05-10T10:19:42;9.38;;;6.55;;
54823;SDS011;40724;53.196;5.980;2023-05-10T10:22:08;11.73;;;5.60;;
54823;SDS011;40724;53.196;5.980;2023-05-10T10:24:38;8.40;;;5.72;;
54823;SDS011;40724;53.196;5.980;2023-05-10T10:27:14;9.00;;;6.07;;
54823;SDS011;40724;53.196;5.980;2023-05-10T10:34:34;8.27;;;5.70;;
54823;SDS011;40724;53.196;5.980;2023-05-10T10:37:04;9.52;;;5.72;;
54823;SDS011;40724;53.196;5.980;2023-05-10T10:39:31;9.18;;;5.68;;
54823;SDS011;40724;53.196;5.980;2023-05-10T10:41:58;8.27;;;5.53;;
54823;SDS011;40724;53.196;5.980;2023-05-10T10:44:25;9.10;;;5.75;;
54823;SDS011;40724;53.196;5.980;2023-05-10T10:46:59;5.97;;;4.55;;
54823;SDS011;40724;53.196;5.980;2023-05-10T10:49:25;8.57;;;5.03;;
54823;SDS011;40724;53.196;5.980;2023-05-10T10:54:37;7.97;;;5.53;;
54823;SDS011;40724;53.196;5.980;2023-05-10T10:57:13;7.60;;;5.57;;
54823;SDS011;40724;53.196;5.980;2023-05-10T10:59:42;7.35;;;5.38;;
54823;SDS011;40724;53.196;5.980;2023-05-10T11:04:56;8.38;;;5.03;;
54823;SDS011;40724;53.196;5.980;2023-05-10T11:07:22;7.50;;;5.18;;
54823;SDS011;40724;53.196;5.980;2023-05-10T11:09:49;9.38;;;5.40;;
54823;SDS011;40724;53.196;5.980;2023-05-10T11:12:15;9.52;;;5.25;;
54823;SDS011;40724;53.196;5.980;2023-05-10T11:14:41;8.77;;;5.53;;
54823;SDS011;40724;53.196;5.980;2023-05-10T11:17:26;10.65;;;5.93;;
54823;SDS011;40724;53.196;5.980;2023-05-10T11:20:06;7.78;;;5.47;;
54823;SDS011;40724;53.196;5.980;2023-05-10T11:22:50;13.73;;;9.43;;
54823;SDS011;40724;53.196;5.980;2023-05-10T11:25:20;8.15;;;5.82;;
54823;SDS011;40724;53.196;5.980;2023-05-10T11:27:49;9.05;;;5.93;;
54823;SDS011;40724;53.196;5.980;2023-05-10T11:30:15;7.70;;;5.90;;
54823;SDS011;40724;53.196;5.980;2023-05-10T11:32:42;6.20;;;5.20;;
54823;SDS011;40724;53.196;5.980;2023-05-10T11:35:08;8.20;;;5.97;;
54823;SDS011;40724;53.196;5.980;2023-05-10T11:37:35;8.25;;;5.45;;
54823;SDS011;40724;53.196;5.980;2023-05-10T11:40:01;6.15;;;4.95;;
54823;SDS011;40724;53.196;5.980;2023-05-10T11:42:28;7.88;;;5.45;;
54823;SDS011;40724;53.196;5.980;2023-05-10T11:44:55;9.75;;;5.32;;
54823;SDS011;40724;53.196;5.980;2023-05-10T11:47:21;7.53;;;4.97;;
54823;SDS011;40724;53.196;5.980;2023-05-10T11:49:47;6.40;;;4.40;;
54823;SDS011;40724;53.196;5.980;2023-05-10T11:52:13;8.50;;;5.00;;
54823;SDS011;40724;53.196;5.980;2023-05-10T11:54:52;6.43;;;5.22;;
54823;SDS011;40724;53.196;5.980;2023-05-10T11:57:18;8.68;;;4.97;;
54823;SDS011;40724;53.196;5.980;2023-05-10T11:59:52;8.82;;;5.72;;
54823;SDS011;40724;53.196;5.980;2023-05-10T12:02:19;6.50;;;4.55;;
54823;SDS011;40724;53.196;5.980;2023-05-10T12:04:46;7.07;;;5.40;;
54823;SDS011;40724;53.196;5.980;2023-05-10T12:07:12;8.15;;;6.22;;
54823;SDS011;40724;53.196;5.980;2023-05-10T12:10:01;7.85;;;5.45;;
54823;SDS011;40724;53.196;5.980;2023-05-10T12:12:34;8.13;;;5.65;;
54823;SDS011;40724;53.196;5.980;2023-05-10T12:15:01;7.53;;;5.72;;
54823;SDS011;40724;53.196;5.980;2023-05-10T12:17:28;8.27;;;5.90;;
54823;SDS011;40724;53.196;5.980;2023-05-10T12:19:58;7.35;;;5.07;;
54823;SDS011;40724;53.196;5.980;2023-05-10T12:22:25;8.30;;;5.32;;
54823;SDS011;40724;53.196;5.980;2023-05-10T12:24:51;8.45;;;5.43;;
54823;SDS011;40724;53.196;5.980;2023-05-10T12:27:18;9.10;;;6.22;;
54823;SDS011;40724;53.196;5.980;2023-05-10T12:29:44;8.32;;;5.82;;
54823;SDS011;40724;53.196;5.980;2023-05-10T12:32:10;9.68;;;5.90;;
54823;SDS011;40724;53.196;5.980;2023-05-10T12:34:36;8.13;;;5.88;;
54823;SDS011;40724;53.196;5.980;2023-05-10T12:37:03;8.43;;;5.82;;
54823;SDS011;40724;53.196;5.980;2023-05-10T12:39:39;10.50;;;6.28;;
54823;SDS011;40724;53.196;5.980;2023-05-10T12:42:06;11.10;;;6.85;;
54823;SDS011;40724;53.196;5.980;2023-05-10T12:44:32;8.23;;;5.68;;
54823;SDS011;40724;53.196;5.980;2023-05-10T12:46:58;7.68;;;5.90;;
54823;SDS011;40724;53.196;5.980;2023-05-10T12:49:24;11.98;;;6.60;;
54823;SDS011;40724;53.196;5.980;2023-05-10T12:51:51;10.88;;;7.13;;
54823;SDS011;40724;53.196;5.980;2023-05-10T12:54:17;13.65;;;7.60;;
54823;SDS011;40724;53.196;5.980;2023-05-10T12:56:43;10.30;;;7.15;;
54823;SDS011;40724;53.196;5.980;2023-05-10T12:59:09;8.13;;;5.75;;
54823;SDS011;40724;53.196;5.980;2023-05-10T13:01:35;9.50;;;6.63;;
54823;SDS011;40724;53.196;5.980;2023-05-10T13:04:01;9.02;;;6.15;;
54823;SDS011;40724;53.196;5.980;2023-05-10T13:06:27;9.68;;;5.55;;
54823;SDS011;40724;53.196;5.980;2023-05-10T13:08:53;8.73;;;5.95;;
54823;SDS011;40724;53.196;5.980;2023-05-10T13:11:20;6.85;;;4.97;;
54823;SDS011;40724;53.196;5.980;2023-05-10T13:13:46;10.75;;;6.70;;
54823;SDS011;40724;53.196;5.980;2023-05-10T13:16:12;9.85;;;5.65;;
54823;SDS011;40724;53.196;5.980;2023-05-10T13:18:38;7.10;;;4.65;;
54823;SDS011;40724;53.196;5.980;2023-05-10T13:21:05;8.43;;;5.18;;
54823;SDS011;40724;53.196;5.980;2023-05-10T13:23:31;9.48;;;4.53;;
54823;SDS011;40724;53.196;5.980;2023-05-10T13:25:57;7.10;;;4.68;;
54823;SDS011;40724;53.196;5.980;2023-05-10T13:28:23;10.80;;;6.07;;
54823;SDS011;40724;53.196;5.980;2023-05-10T13:30:51;13.65;;;8.70;;
54823;SDS011;40724;53.196;5.980;2023-05-10T13:33:17;8.82;;;6.78;;
54823;SDS011;40724;53.196;5.980;2023-05-10T13:35:43;10.55;;;5.85;;
54823;SDS011;40724;53.196;5.980;2023-05-10T13:38:10;9.82;;;6.30;;
54823;SDS011;40724;53.196;5.980;2023-05-10T13:40:36;9.82;;;5.60;;
54823;SDS011;40724;53.196;5.980;2023-05-10T13:43:02;8.05;;;5.28;;
54823;SDS011;40724;53.196;5.980;2023-05-10T13:45:28;6.93;;;5.55;;
54823;SDS011;40724;53.196;5.980;2023-05-10T13:47:54;9.55;;;5.57;;
54823;SDS011;40724;53.196;5.980;2023-05-10T13:50:20;11.15;;;7.00;;
54823;SDS011;40724;53.196;5.980;2023-05-10T13:52:47;10.02;;;5.20;;
54823;SDS011;40724;53.196;5.980;2023-05-10T13:55:13;10.02;;;6.30;;
54823;SDS011;40724;53.196;5.980;2023-05-10T13:57:39;9.98;;;7.00;;
54823;SDS011;40724;53.196;5.980;2023-05-10T14:00:06;7.22;;;5.55;;
54823;SDS011;40724;53.196;5.980;2023-05-10T14:02:32;7.55;;;4.93;;
54823;SDS011;40724;53.196;5.980;2023-05-10T14:04:59;4.68;;;3.47;;
54823;SDS011;40724;53.196;5.980;2023-05-10T14:07:25;9.05;;;5.10;;
54823;SDS011;40724;53.196;5.980;2023-05-10T14:09:51;9.10;;;5.78;;
54823;SDS011;40724;53.196;5.980;2023-05-10T14:12:17;9.80;;;6.00;;
54823;SDS011;40724;53.196;5.980;2023-05-10T14:14:44;7.85;;;5.63;;
54823;SDS011;40724;53.196;5.980;2023-05-10T14:17:10;8.35;;;5.72;;
54823;SDS011;40724;53.196;5.980;2023-05-10T14:19:36;9.10;;;5.90;;
54823;SDS011;40724;53.196;5.980;2023-05-10T14:22:03;8.73;;;5.65;;
54823;SDS011;40724;53.196;5.980;2023-05-10T14:24:29;8.40;;;5.15;;
54823;SDS011;40724;53.196;5.980;2023-05-10T14:26:56;7.75;;;5.55;;
54823;SDS011;40724;53.196;5.980;2023-05-10T14:29:22;7.13;;;5.50;;
54823;SDS011;40724;53.196;5.980;2023-05-10T14:31:49;6.60;;;4.93;;
54823;SDS011;40724;53.196;5.980;2023-05-10T14:34:15;5.30;;;4.15;;
54823;SDS011;40724;53.196;5.980;2023-05-10T14:36:41;5.60;;;4.35;;
54823;SDS011;40724;53.196;5.980;2023-05-10T14:39:07;6.55;;;3.20;;
54823;SDS011;40724;53.196;5.980;2023-05-10T14:41:35;7.22;;;3.28;;
54823;SDS011;40724;53.196;5.980;2023-05-10T14:44:02;6.53;;;3.13;;
54823;SDS011;40724;53.196;5.980;2023-05-10T14:46:28;5.22;;;3.20;;
54823;SDS011;40724;53.196;5.980;2023-05-10T14:48:54;4.72;;;3.22;;
54823;SDS011;40724;53.196;5.980;2023-05-10T14:51:21;4.45;;;2.42;;
54823;SDS011;40724;53.196;5.980;2023-05-10T14:53:47;3.70;;;3.08;;
54823;SDS011;40724;53.196;5.980;2023-05-10T14:56:14;4.38;;;3.22;;
54823;SDS011;40724;53.196;5.980;2023-05-10T14:58:40;4.22;;;2.72;;
54823;SDS011;40724;53.196;5.980;2023-05-10T15:01:07;5.05;;;2.60;;
54823;SDS011;40724;53.196;5.980;2023-05-10T15:03:33;5.60;;;3.05;;
54823;SDS011;40724;53.196;5.980;2023-05-10T15:05:59;4.47;;;2.70;;
54823;SDS011;40724;53.196;5.980;2023-05-10T15:08:25;4.50;;;3.13;;
54823;SDS011;40724;53.196;5.980;2023-05-10T15:10:51;5.47;;;3.80;;
54823;SDS011;40724;53.196;5.980;2023-05-10T15:13:17;4.53;;;3.90;;
54823;SDS011;40724;53.196;5.980;2023-05-10T15:15:43;6.70;;;4.30;;